sensor_id;sensor_type;location;lat;lon;timestamp;temperature;humidity
11820;DHT22;5967;48.944;9.240;2022-07-06T00:01:57;18.60;99.90
11820;DHT22;5967;48.944;9.240;2022-07-06T00:04:22;18.60;99.90
11820;DHT22;5967;48.944;9.240;2022-07-06T00:06:48;18.50;99.90
11820;DHT22;5967;48.944;9.240;2022-07-06T00:09:15;18.40;99.90
11820;DHT22;5967;48.944;9.240;2022-07-06T00:11:40;18.40;99.90
11820;DHT22;5967;48.944;9.240;2022-07-06T00:14:06;18.40;99.90
11820;DHT22;5967;48.944;9.240;2022-07-06T00:16:32;18.40;99.90
11820;DHT22;5967;48.944;9.240;2022-07-06T00:18:57;18.40;99.90
11820;DHT22;5967;48.944;9.240;2022-07-06T00:21:23;18.40;99.90
11820;DHT22;5967;48.944;9.240;2022-07-06T00:23:49;18.40;99.90
11820;DHT22;5967;48.944;9.240;2022-07-06T00:26:17;18.40;99.90
11820;DHT22;5967;48.944;9.240;2022-07-06T00:28:43;18.40;99.90
11820;DHT22;5967;48.944;9.240;2022-07-06T00:31:09;18.40;99.90
11820;DHT22;5967;48.944;9.240;2022-07-06T00:33:34;18.30;99.90
11820;DHT22;5967;48.944;9.240;2022-07-06T00:36:00;18.30;99.90
11820;DHT22;5967;48.944;9.240;2022-07-06T00:38:26;18.20;99.90
11820;DHT22;5967;48.944;9.240;2022-07-06T00:40:51;18.20;99.90
11820;DHT22;5967;48.944;9.240;2022-07-06T00:43:17;18.10;99.90
11820;DHT22;5967;48.944;9.240;2022-07-06T00:45:42;18.00;99.90
11820;DHT22;5967;48.944;9.240;2022-07-06T00:48:09;18.00;99.90
11820;DHT22;5967;48.944;9.240;2022-07-06T00:50:35;17.90;99.90
11820;DHT22;5967;48.944;9.240;2022-07-06T00:53:05;17.80;99.90
11820;DHT22;5967;48.944;9.240;2022-07-06T00:55:34;17.80;99.90
11820;DHT22;5967;48.944;9.240;2022-07-06T00:58:04;17.70;99.90
11820;DHT22;5967;48.944;9.240;2022-07-06T01:00:29;17.60;99.90
11820;DHT22;5967;48.944;9.240;2022-07-06T01:02:56;17.50;99.90
11820;DHT22;5967;48.944;9.240;2022-07-06T01:05:22;17.50;99.90
11820;DHT22;5967;48.944;9.240;2022-07-06T01:07:50;17.40;99.90
11820;DHT22;5967;48.944;9.240;2022-07-06T01:10:17;17.40;99.90
11820;DHT22;5967;48.944;9.240;2022-07-06T01:12:44;17.30;99.90
11820;DHT22;5967;48.944;9.240;2022-07-06T01:15:16;17.30;99.90
11820;DHT22;5967;48.944;9.240;2022-07-06T01:17:42;17.20;99.90
11820;DHT22;5967;48.944;9.240;2022-07-06T01:20:15;17.20;99.90
11820;DHT22;5967;48.944;9.240;2022-07-06T01:22:41;17.20;99.90
11820;DHT22;5967;48.944;9.240;2022-07-06T01:25:08;17.10;99.90
11820;DHT22;5967;48.944;9.240;2022-07-06T01:27:34;17.10;99.90
11820;DHT22;5967;48.944;9.240;2022-07-06T01:30:06;17.10;99.90
11820;DHT22;5967;48.944;9.240;2022-07-06T01:32:33;17.00;99.90
11820;DHT22;5967;48.944;9.240;2022-07-06T01:34:59;17.00;99.90
11820;DHT22;5967;48.944;9.240;2022-07-06T01:37:25;17.00;99.90
11820;DHT22;5967;48.944;9.240;2022-07-06T01:39:50;17.00;99.90
11820;DHT22;5967;48.944;9.240;2022-07-06T01:42:16;16.90;99.90
11820;DHT22;5967;48.944;9.240;2022-07-06T01:44:43;16.80;99.90
11820;DHT22;5967;48.944;9.240;2022-07-06T01:47:10;16.80;99.90
11820;DHT22;5967;48.944;9.240;2022-07-06T01:49:35;16.80;99.90
11820;DHT22;5967;48.944;9.240;2022-07-06T01:52:01;16.70;99.90
11820;DHT22;5967;48.944;9.240;2022-07-06T01:54:28;16.70;99.90
11820;DHT22;5967;48.944;9.240;2022-07-06T01:56:53;16.70;99.90
11820;DHT22;5967;48.944;9.240;2022-07-06T01:59:19;16.60;99.90
11820;DHT22;5967;48.944;9.240;2022-07-06T02:01:44;16.60;99.90
11820;DHT22;5967;48.944;9.240;2022-07-06T02:04:10;16.60;99.90
11820;DHT22;5967;48.944;9.240;2022-07-06T02:06:36;16.60;99.90
11820;DHT22;5967;48.944;9.240;2022-07-06T02:09:02;16.60;99.90
11820;DHT22;5967;48.944;9.240;2022-07-06T02:11:27;16.60;99.90
11820;DHT22;5967;48.944;9.240;2022-07-06T02:13:53;16.50;99.90
11820;DHT22;5967;48.944;9.240;2022-07-06T02:16:19;16.50;99.90
11820;DHT22;5967;48.944;9.240;2022-07-06T02:18:44;16.50;99.90
11820;DHT22;5967;48.944;9.240;2022-07-06T02:21:10;16.40;99.90
11820;DHT22;5967;48.944;9.240;2022-07-06T02:23:36;16.30;99.90
11820;DHT22;5967;48.944;9.240;2022-07-06T02:26:01;16.30;99.90
11820;DHT22;5967;48.944;9.240;2022-07-06T02:28:29;16.30;99.90
11820;DHT22;5967;48.944;9.240;2022-07-06T02:30:55;16.20;99.90
11820;DHT22;5967;48.944;9.240;2022-07-06T02:33:20;16.20;99.90
11820;DHT22;5967;48.944;9.240;2022-07-06T02:35:46;16.10;99.90
11820;DHT22;5967;48.944;9.240;2022-07-06T02:38:12;16.10;99.90
11820;DHT22;5967;48.944;9.240;2022-07-06T02:40:38;16.00;99.90
11820;DHT22;5967;48.944;9.240;2022-07-06T02:43:04;16.10;99.90
11820;DHT22;5967;48.944;9.240;2022-07-06T02:45:29;16.00;99.90
11820;DHT22;5967;48.944;9.240;2022-07-06T02:47:55;16.00;99.90
11820;DHT22;5967;48.944;9.240;2022-07-06T02:50:23;16.00;99.90
11820;DHT22;5967;48.944;9.240;2022-07-06T02:52:48;16.00;99.90
11820;DHT22;5967;48.944;9.240;2022-07-06T02:55:14;16.00;99.90
11820;DHT22;5967;48.944;9.240;2022-07-06T02:57:40;15.90;99.90
11820;DHT22;5967;48.944;9.240;2022-07-06T03:00:06;15.90;99.90
11820;DHT22;5967;48.944;9.240;2022-07-06T03:02:32;15.80;99.90
11820;DHT22;5967;48.944;9.240;2022-07-06T03:04:58;15.80;99.90
11820;DHT22;5967;48.944;9.240;2022-07-06T03:07:24;15.70;99.90
11820;DHT22;5967;48.944;9.240;2022-07-06T03:09:49;15.70;99.90
11820;DHT22;5967;48.944;9.240;2022-07-06T03:12:15;15.70;99.90
11820;DHT22;5967;48.944;9.240;2022-07-06T03:14:42;15.70;99.90
11820;DHT22;5967;48.944;9.240;2022-07-06T03:17:07;15.60;99.90
11820;DHT22;5967;48.944;9.240;2022-07-06T03:19:33;15.60;99.90
11820;DHT22;5967;48.944;9.240;2022-07-06T03:21:59;15.60;99.90
11820;DHT22;5967;48.944;9.240;2022-07-06T03:24:24;15.50;99.90
11820;DHT22;5967;48.944;9.240;2022-07-06T03:26:50;15.50;99.90
11820;DHT22;5967;48.944;9.240;2022-07-06T03:29:16;15.50;99.90
11820;DHT22;5967;48.944;9.240;2022-07-06T03:31:41;15.40;99.90
11820;DHT22;5967;48.944;9.240;2022-07-06T03:34:07;15.40;99.90
11820;DHT22;5967;48.944;9.240;2022-07-06T03:36:33;15.40;99.90
11820;DHT22;5967;48.944;9.240;2022-07-06T03:38:58;15.40;99.90
11820;DHT22;5967;48.944;9.240;2022-07-06T03:41:24;15.40;99.90
11820;DHT22;5967;48.944;9.240;2022-07-06T03:43:50;15.40;99.90
11820;DHT22;5967;48.944;9.240;2022-07-06T03:46:15;15.40;99.90
11820;DHT22;5967;48.944;9.240;2022-07-06T03:48:41;15.40;99.90
11820;DHT22;5967;48.944;9.240;2022-07-06T03:51:07;15.30;99.90
11820;DHT22;5967;48.944;9.240;2022-07-06T03:53:33;15.40;99.90
11820;DHT22;5967;48.944;9.240;2022-07-06T03:55:59;15.30;99.90
11820;DHT22;5967;48.944;9.240;2022-07-06T03:58:43;15.30;99.90
11820;DHT22;5967;48.944;9.240;2022-07-06T04:01:08;15.30;99.90
11820;DHT22;5967;48.944;9.240;2022-07-06T04:03:34;15.30;99.90
11820;DHT22;5967;48.944;9.240;2022-07-06T04:06:00;15.30;99.90
11820;DHT22;5967;48.944;9.240;2022-07-06T04:08:25;15.30;99.90
11820;DHT22;5967;48.944;9.240;2022-07-06T04:10:51;15.40;99.90
11820;DHT22;5967;48.944;9.240;2022-07-06T04:13:16;15.40;99.90
11820;DHT22;5967;48.944;9.240;2022-07-06T04:15:42;15.30;99.90
11820;DHT22;5967;48.944;9.240;2022-07-06T04:18:08;15.40;99.90
11820;DHT22;5967;48.944;9.240;2022-07-06T04:20:33;15.50;99.90
11820;DHT22;5967;48.944;9.240;2022-07-06T04:22:59;15.50;99.90
11820;DHT22;5967;48.944;9.240;2022-07-06T04:25:25;15.60;99.90
11820;DHT22;5967;48.944;9.240;2022-07-06T04:27:51;15.70;99.90
11820;DHT22;5967;48.944;9.240;2022-07-06T04:30:17;15.80;99.90
11820;DHT22;5967;48.944;9.240;2022-07-06T04:32:42;16.00;99.90
11820;DHT22;5967;48.944;9.240;2022-07-06T04:35:10;16.10;99.90
11820;DHT22;5967;48.944;9.240;2022-07-06T04:37:36;16.20;99.90
11820;DHT22;5967;48.944;9.240;2022-07-06T04:40:03;16.30;99.90
11820;DHT22;5967;48.944;9.240;2022-07-06T04:42:29;16.40;99.90
11820;DHT22;5967;48.944;9.240;2022-07-06T04:44:57;16.60;99.90
11820;DHT22;5967;48.944;9.240;2022-07-06T04:47:23;16.60;99.90
11820;DHT22;5967;48.944;9.240;2022-07-06T04:49:48;16.70;99.90
11820;DHT22;5967;48.944;9.240;2022-07-06T04:52:14;16.70;99.90
11820;DHT22;5967;48.944;9.240;2022-07-06T04:54:40;16.80;99.90
11820;DHT22;5967;48.944;9.240;2022-07-06T04:57:05;16.90;99.90
11820;DHT22;5967;48.944;9.240;2022-07-06T04:59:31;16.90;99.90
11820;DHT22;5967;48.944;9.240;2022-07-06T05:01:56;17.00;99.90
11820;DHT22;5967;48.944;9.240;2022-07-06T05:04:22;17.10;99.90
11820;DHT22;5967;48.944;9.240;2022-07-06T05:06:49;17.20;99.90
11820;DHT22;5967;48.944;9.240;2022-07-06T05:09:14;17.30;99.90
11820;DHT22;5967;48.944;9.240;2022-07-06T05:11:40;17.40;99.90
11820;DHT22;5967;48.944;9.240;2022-07-06T05:14:06;17.50;99.90
11820;DHT22;5967;48.944;9.240;2022-07-06T05:16:32;17.60;99.90
11820;DHT22;5967;48.944;9.240;2022-07-06T05:18:58;17.70;99.90
11820;DHT22;5967;48.944;9.240;2022-07-06T05:21:24;17.80;99.90
11820;DHT22;5967;48.944;9.240;2022-07-06T05:23:50;17.90;99.90
11820;DHT22;5967;48.944;9.240;2022-07-06T05:26:16;18.10;99.90
11820;DHT22;5967;48.944;9.240;2022-07-06T05:28:42;18.30;99.90
11820;DHT22;5967;48.944;9.240;2022-07-06T05:31:07;18.50;99.90
11820;DHT22;5967;48.944;9.240;2022-07-06T05:33:33;18.50;99.90
11820;DHT22;5967;48.944;9.240;2022-07-06T05:35:59;18.50;99.90
11820;DHT22;5967;48.944;9.240;2022-07-06T05:38:25;18.30;99.90
11820;DHT22;5967;48.944;9.240;2022-07-06T05:40:50;18.20;99.90
11820;DHT22;5967;48.944;9.240;2022-07-06T05:43:16;18.10;99.90
11820;DHT22;5967;48.944;9.240;2022-07-06T05:45:42;18.00;99.90
11820;DHT22;5967;48.944;9.240;2022-07-06T05:48:08;18.00;99.90
11820;DHT22;5967;48.944;9.240;2022-07-06T05:50:52;18.00;99.90
11820;DHT22;5967;48.944;9.240;2022-07-06T05:53:18;18.00;99.90
11820;DHT22;5967;48.944;9.240;2022-07-06T05:55:44;18.00;99.90
11820;DHT22;5967;48.944;9.240;2022-07-06T05:58:10;17.90;99.90
11820;DHT22;5967;48.944;9.240;2022-07-06T06:00:35;17.90;99.90
11820;DHT22;5967;48.944;9.240;2022-07-06T06:03:01;17.90;99.90
11820;DHT22;5967;48.944;9.240;2022-07-06T06:05:27;18.00;99.90
11820;DHT22;5967;48.944;9.240;2022-07-06T06:07:55;18.10;99.90
11820;DHT22;5967;48.944;9.240;2022-07-06T06:10:21;18.20;99.90
11820;DHT22;5967;48.944;9.240;2022-07-06T06:12:48;18.20;99.90
11820;DHT22;5967;48.944;9.240;2022-07-06T06:15:13;18.30;99.90
11820;DHT22;5967;48.944;9.240;2022-07-06T06:17:39;18.30;99.90
11820;DHT22;5967;48.944;9.240;2022-07-06T06:20:09;18.30;99.90
11820;DHT22;5967;48.944;9.240;2022-07-06T06:25:14;18.40;99.90
11820;DHT22;5967;48.944;9.240;2022-07-06T06:27:40;18.40;99.90
11820;DHT22;5967;48.944;9.240;2022-07-06T06:30:06;18.40;99.90
11820;DHT22;5967;48.944;9.240;2022-07-06T06:32:32;18.40;99.90
11820;DHT22;5967;48.944;9.240;2022-07-06T06:34:57;18.40;99.90
11820;DHT22;5967;48.944;9.240;2022-07-06T06:37:23;18.50;99.90
11820;DHT22;5967;48.944;9.240;2022-07-06T06:39:48;18.50;99.90
11820;DHT22;5967;48.944;9.240;2022-07-06T06:42:14;18.70;99.90
11820;DHT22;5967;48.944;9.240;2022-07-06T06:44:40;18.80;99.90
11820;DHT22;5967;48.944;9.240;2022-07-06T06:47:05;18.80;99.90
11820;DHT22;5967;48.944;9.240;2022-07-06T06:49:31;18.90;99.90
11820;DHT22;5967;48.944;9.240;2022-07-06T06:51:56;19.00;99.90
11820;DHT22;5967;48.944;9.240;2022-07-06T06:54:22;19.00;99.90
11820;DHT22;5967;48.944;9.240;2022-07-06T06:56:48;19.00;99.90
11820;DHT22;5967;48.944;9.240;2022-07-06T06:59:13;19.00;99.90
11820;DHT22;5967;48.944;9.240;2022-07-06T07:01:39;19.00;99.90
11820;DHT22;5967;48.944;9.240;2022-07-06T07:04:04;19.00;99.90
11820;DHT22;5967;48.944;9.240;2022-07-06T07:06:31;18.90;99.90
11820;DHT22;5967;48.944;9.240;2022-07-06T07:08:57;19.00;99.90
11820;DHT22;5967;48.944;9.240;2022-07-06T07:11:23;19.10;99.90
11820;DHT22;5967;48.944;9.240;2022-07-06T07:13:48;19.10;99.90
11820;DHT22;5967;48.944;9.240;2022-07-06T07:16:14;19.10;99.90
11820;DHT22;5967;48.944;9.240;2022-07-06T07:18:40;19.20;99.90
11820;DHT22;5967;48.944;9.240;2022-07-06T07:21:06;19.10;99.90
11820;DHT22;5967;48.944;9.240;2022-07-06T07:23:31;19.10;99.90
11820;DHT22;5967;48.944;9.240;2022-07-06T07:25:57;19.10;99.90
11820;DHT22;5967;48.944;9.240;2022-07-06T07:28:23;19.20;99.90
11820;DHT22;5967;48.944;9.240;2022-07-06T07:30:48;19.20;99.90
11820;DHT22;5967;48.944;9.240;2022-07-06T07:33:14;19.20;99.90
11820;DHT22;5967;48.944;9.240;2022-07-06T07:35:40;19.20;99.90
11820;DHT22;5967;48.944;9.240;2022-07-06T07:38:05;19.20;99.90
11820;DHT22;5967;48.944;9.240;2022-07-06T07:40:31;19.20;99.90
11820;DHT22;5967;48.944;9.240;2022-07-06T07:42:56;19.20;99.90
11820;DHT22;5967;48.944;9.240;2022-07-06T07:45:22;19.30;99.90
11820;DHT22;5967;48.944;9.240;2022-07-06T07:47:48;19.20;99.90
11820;DHT22;5967;48.944;9.240;2022-07-06T07:50:14;19.30;99.90
11820;DHT22;5967;48.944;9.240;2022-07-06T07:52:40;19.40;99.90
11820;DHT22;5967;48.944;9.240;2022-07-06T07:55:06;19.50;99.90
11820;DHT22;5967;48.944;9.240;2022-07-06T07:57:32;19.60;99.90
11820;DHT22;5967;48.944;9.240;2022-07-06T07:59:57;19.70;99.90
11820;DHT22;5967;48.944;9.240;2022-07-06T08:02:23;19.70;99.90
11820;DHT22;5967;48.944;9.240;2022-07-06T08:04:49;19.80;99.90
11820;DHT22;5967;48.944;9.240;2022-07-06T08:07:14;19.90;99.90
11820;DHT22;5967;48.944;9.240;2022-07-06T08:09:40;20.00;99.90
11820;DHT22;5967;48.944;9.240;2022-07-06T08:12:06;20.00;99.90
11820;DHT22;5967;48.944;9.240;2022-07-06T08:14:31;19.90;99.90
11820;DHT22;5967;48.944;9.240;2022-07-06T08:16:57;19.90;99.90
11820;DHT22;5967;48.944;9.240;2022-07-06T08:19:23;19.90;99.90
11820;DHT22;5967;48.944;9.240;2022-07-06T08:21:48;19.90;99.90
11820;DHT22;5967;48.944;9.240;2022-07-06T08:24:14;20.00;99.90
11820;DHT22;5967;48.944;9.240;2022-07-06T08:26:40;20.00;99.90
11820;DHT22;5967;48.944;9.240;2022-07-06T08:29:05;20.00;99.90
11820;DHT22;5967;48.944;9.240;2022-07-06T08:31:31;20.10;99.90
11820;DHT22;5967;48.944;9.240;2022-07-06T08:33:58;20.20;99.90
11820;DHT22;5967;48.944;9.240;2022-07-06T08:36:24;20.30;99.90
11820;DHT22;5967;48.944;9.240;2022-07-06T08:38:50;20.40;99.90
11820;DHT22;5967;48.944;9.240;2022-07-06T08:41:16;20.40;99.90
11820;DHT22;5967;48.944;9.240;2022-07-06T08:43:43;20.30;99.90
11820;DHT22;5967;48.944;9.240;2022-07-06T08:46:09;20.40;99.90
11820;DHT22;5967;48.944;9.240;2022-07-06T08:48:36;20.40;99.90
11820;DHT22;5967;48.944;9.240;2022-07-06T08:51:03;20.30;99.90
11820;DHT22;5967;48.944;9.240;2022-07-06T08:53:29;20.40;99.90
11820;DHT22;5967;48.944;9.240;2022-07-06T08:55:55;20.40;99.90
11820;DHT22;5967;48.944;9.240;2022-07-06T08:58:23;20.40;99.90
11820;DHT22;5967;48.944;9.240;2022-07-06T09:00:49;20.40;99.90
11820;DHT22;5967;48.944;9.240;2022-07-06T09:03:15;20.40;99.90
11820;DHT22;5967;48.944;9.240;2022-07-06T09:05:45;20.30;99.90
11820;DHT22;5967;48.944;9.240;2022-07-06T09:08:11;20.40;99.90
11820;DHT22;5967;48.944;9.240;2022-07-06T09:10:37;20.50;99.90
11820;DHT22;5967;48.944;9.240;2022-07-06T09:13:07;20.60;99.90
11820;DHT22;5967;48.944;9.240;2022-07-06T09:15:34;20.60;99.90
11820;DHT22;5967;48.944;9.240;2022-07-06T09:18:01;20.60;99.90
11820;DHT22;5967;48.944;9.240;2022-07-06T09:20:27;20.70;99.90
11820;DHT22;5967;48.944;9.240;2022-07-06T09:23:00;20.90;99.90
11820;DHT22;5967;48.944;9.240;2022-07-06T09:25:27;20.90;99.90
11820;DHT22;5967;48.944;9.240;2022-07-06T09:27:53;21.00;99.90
11820;DHT22;5967;48.944;9.240;2022-07-06T09:30:23;21.10;99.90
11820;DHT22;5967;48.944;9.240;2022-07-06T09:32:51;21.20;99.90
11820;DHT22;5967;48.944;9.240;2022-07-06T09:35:35;21.30;99.90
11820;DHT22;5967;48.944;9.240;2022-07-06T09:38:11;21.40;99.90
11820;DHT22;5967;48.944;9.240;2022-07-06T09:40:41;21.50;99.90
11820;DHT22;5967;48.944;9.240;2022-07-06T09:45:41;21.60;99.90
11820;DHT22;5967;48.944;9.240;2022-07-06T09:48:09;21.70;99.90
11820;DHT22;5967;48.944;9.240;2022-07-06T09:50:39;21.70;99.90
11820;DHT22;5967;48.944;9.240;2022-07-06T09:53:06;21.70;99.90
11820;DHT22;5967;48.944;9.240;2022-07-06T09:55:31;21.80;99.90
11820;DHT22;5967;48.944;9.240;2022-07-06T09:57:57;21.70;99.90
11820;DHT22;5967;48.944;9.240;2022-07-06T10:00:23;21.70;99.90
11820;DHT22;5967;48.944;9.240;2022-07-06T10:02:49;21.90;99.90
11820;DHT22;5967;48.944;9.240;2022-07-06T10:05:17;22.00;99.90
11820;DHT22;5967;48.944;9.240;2022-07-06T10:07:45;21.90;99.90
11820;DHT22;5967;48.944;9.240;2022-07-06T10:10:11;22.00;99.90
11820;DHT22;5967;48.944;9.240;2022-07-06T10:12:37;22.20;99.90
11820;DHT22;5967;48.944;9.240;2022-07-06T10:15:06;22.30;99.90
11820;DHT22;5967;48.944;9.240;2022-07-06T10:17:32;22.40;99.90
11820;DHT22;5967;48.944;9.240;2022-07-06T10:19:59;22.50;99.90
11820;DHT22;5967;48.944;9.240;2022-07-06T10:22:24;22.50;99.90
11820;DHT22;5967;48.944;9.240;2022-07-06T10:24:51;22.60;99.90
11820;DHT22;5967;48.944;9.240;2022-07-06T10:27:17;22.80;99.90
11820;DHT22;5967;48.944;9.240;2022-07-06T10:29:43;22.90;99.90
11820;DHT22;5967;48.944;9.240;2022-07-06T10:32:09;23.00;99.90
11820;DHT22;5967;48.944;9.240;2022-07-06T10:34:35;23.10;99.90
11820;DHT22;5967;48.944;9.240;2022-07-06T10:37:02;23.00;99.90
11820;DHT22;5967;48.944;9.240;2022-07-06T10:39:36;23.10;99.90
11820;DHT22;5967;48.944;9.240;2022-07-06T10:42:55;23.10;99.90
11820;DHT22;5967;48.944;9.240;2022-07-06T10:50:48;23.00;99.90
11820;DHT22;5967;48.944;9.240;2022-07-06T10:53:16;22.90;99.90
11820;DHT22;5967;48.944;9.240;2022-07-06T10:55:45;22.70;99.90
11820;DHT22;5967;48.944;9.240;2022-07-06T10:58:35;22.70;99.90
11820;DHT22;5967;48.944;9.240;2022-07-06T11:01:00;22.90;99.90
11820;DHT22;5967;48.944;9.240;2022-07-06T11:03:44;23.00;99.90
11820;DHT22;5967;48.944;9.240;2022-07-06T11:06:14;23.20;99.90
11820;DHT22;5967;48.944;9.240;2022-07-06T11:14:16;23.70;99.90
11820;DHT22;5967;48.944;9.240;2022-07-06T11:19:21;23.80;99.90
11820;DHT22;5967;48.944;9.240;2022-07-06T11:22:08;23.80;99.90
11820;DHT22;5967;48.944;9.240;2022-07-06T11:24:37;23.80;99.90
11820;DHT22;5967;48.944;9.240;2022-07-06T11:27:04;23.60;99.90
11820;DHT22;5967;48.944;9.240;2022-07-06T11:29:32;23.60;99.90
11820;DHT22;5967;48.944;9.240;2022-07-06T11:32:00;23.60;99.90
11820;DHT22;5967;48.944;9.240;2022-07-06T11:34:37;23.70;99.90
11820;DHT22;5967;48.944;9.240;2022-07-06T11:37:06;23.60;99.90
11820;DHT22;5967;48.944;9.240;2022-07-06T11:39:37;23.60;99.90
11820;DHT22;5967;48.944;9.240;2022-07-06T11:42:06;23.50;99.90
11820;DHT22;5967;48.944;9.240;2022-07-06T11:44:33;23.50;99.90
11820;DHT22;5967;48.944;9.240;2022-07-06T11:46:59;23.50;99.90
11820;DHT22;5967;48.944;9.240;2022-07-06T11:49:30;23.60;99.90
11820;DHT22;5967;48.944;9.240;2022-07-06T11:51:56;23.60;99.90
11820;DHT22;5967;48.944;9.240;2022-07-06T11:54:23;23.70;99.90
11820;DHT22;5967;48.944;9.240;2022-07-06T11:56:55;23.70;99.90
11820;DHT22;5967;48.944;9.240;2022-07-06T11:59:26;23.80;99.90
11820;DHT22;5967;48.944;9.240;2022-07-06T12:02:10;23.80;99.90
11820;DHT22;5967;48.944;9.240;2022-07-06T12:04:43;23.70;99.90
11820;DHT22;5967;48.944;9.240;2022-07-06T12:07:12;23.60;99.90
11820;DHT22;5967;48.944;9.240;2022-07-06T12:09:39;23.50;99.90
11820;DHT22;5967;48.944;9.240;2022-07-06T12:12:06;23.50;99.90
11820;DHT22;5967;48.944;9.240;2022-07-06T12:14:34;23.50;99.90
11820;DHT22;5967;48.944;9.240;2022-07-06T12:17:06;23.40;99.90
11820;DHT22;5967;48.944;9.240;2022-07-06T12:19:33;23.30;99.90
11820;DHT22;5967;48.944;9.240;2022-07-06T12:21:59;23.50;99.90
11820;DHT22;5967;48.944;9.240;2022-07-06T12:24:28;23.60;99.90
11820;DHT22;5967;48.944;9.240;2022-07-06T12:26:56;23.80;99.90
11820;DHT22;5967;48.944;9.240;2022-07-06T12:29:22;23.90;99.90
11820;DHT22;5967;48.944;9.240;2022-07-06T12:31:56;23.90;99.90
11820;DHT22;5967;48.944;9.240;2022-07-06T12:34:24;23.80;99.90
11820;DHT22;5967;48.944;9.240;2022-07-06T12:36:54;23.70;99.90
11820;DHT22;5967;48.944;9.240;2022-07-06T12:39:23;23.40;99.90
11820;DHT22;5967;48.944;9.240;2022-07-06T12:41:54;23.10;99.90
11820;DHT22;5967;48.944;9.240;2022-07-06T12:44:23;22.90;99.90
11820;DHT22;5967;48.944;9.240;2022-07-06T12:46:50;22.80;99.90
11820;DHT22;5967;48.944;9.240;2022-07-06T12:49:21;22.60;99.90
11820;DHT22;5967;48.944;9.240;2022-07-06T12:54:24;22.30;99.90
11820;DHT22;5967;48.944;9.240;2022-07-06T12:57:07;22.40;99.90
11820;DHT22;5967;48.944;9.240;2022-07-06T12:59:35;22.40;99.90
11820;DHT22;5967;48.944;9.240;2022-07-06T13:02:02;22.50;99.90
11820;DHT22;5967;48.944;9.240;2022-07-06T13:04:30;22.60;99.90
11820;DHT22;5967;48.944;9.240;2022-07-06T13:06:58;22.70;99.90
11820;DHT22;5967;48.944;9.240;2022-07-06T13:09:23;22.70;99.90
11820;DHT22;5967;48.944;9.240;2022-07-06T13:11:49;22.70;99.90
11820;DHT22;5967;48.944;9.240;2022-07-06T13:14:16;22.70;99.90
11820;DHT22;5967;48.944;9.240;2022-07-06T13:16:43;22.70;99.90
11820;DHT22;5967;48.944;9.240;2022-07-06T13:19:09;22.70;99.90
11820;DHT22;5967;48.944;9.240;2022-07-06T13:21:35;22.80;99.90
11820;DHT22;5967;48.944;9.240;2022-07-06T13:24:02;22.70;99.90
11820;DHT22;5967;48.944;9.240;2022-07-06T13:26:29;22.80;99.90
11820;DHT22;5967;48.944;9.240;2022-07-06T13:28:55;22.90;99.90
11820;DHT22;5967;48.944;9.240;2022-07-06T13:31:20;23.10;99.90
11820;DHT22;5967;48.944;9.240;2022-07-06T13:33:46;23.10;99.90
11820;DHT22;5967;48.944;9.240;2022-07-06T13:36:12;23.20;99.90
11820;DHT22;5967;48.944;9.240;2022-07-06T13:38:37;23.30;99.90
11820;DHT22;5967;48.944;9.240;2022-07-06T13:41:03;23.20;99.90
11820;DHT22;5967;48.944;9.240;2022-07-06T13:43:28;23.20;99.90
11820;DHT22;5967;48.944;9.240;2022-07-06T13:46:05;23.20;99.90
11820;DHT22;5967;48.944;9.240;2022-07-06T13:48:31;23.30;99.90
11820;DHT22;5967;48.944;9.240;2022-07-06T13:50:57;23.30;99.90
11820;DHT22;5967;48.944;9.240;2022-07-06T13:53:23;23.20;99.90
11820;DHT22;5967;48.944;9.240;2022-07-06T13:55:49;23.10;99.90
11820;DHT22;5967;48.944;9.240;2022-07-06T13:58:14;23.10;99.90
11820;DHT22;5967;48.944;9.240;2022-07-06T14:00:40;23.10;99.90
11820;DHT22;5967;48.944;9.240;2022-07-06T14:03:07;23.10;99.90
11820;DHT22;5967;48.944;9.240;2022-07-06T14:05:34;23.20;99.90
11820;DHT22;5967;48.944;9.240;2022-07-06T14:08:00;23.30;99.90
11820;DHT22;5967;48.944;9.240;2022-07-06T14:10:26;23.40;99.90
11820;DHT22;5967;48.944;9.240;2022-07-06T14:12:52;23.50;99.90
11820;DHT22;5967;48.944;9.240;2022-07-06T14:15:17;23.60;99.90
11820;DHT22;5967;48.944;9.240;2022-07-06T14:17:43;23.50;99.90
11820;DHT22;5967;48.944;9.240;2022-07-06T14:20:09;23.50;99.90
11820;DHT22;5967;48.944;9.240;2022-07-06T14:22:35;23.40;99.90
11820;DHT22;5967;48.944;9.240;2022-07-06T14:25:00;23.40;99.90
11820;DHT22;5967;48.944;9.240;2022-07-06T14:27:26;23.40;99.90
11820;DHT22;5967;48.944;9.240;2022-07-06T14:29:52;23.40;99.90
11820;DHT22;5967;48.944;9.240;2022-07-06T14:32:17;23.40;99.90
11820;DHT22;5967;48.944;9.240;2022-07-06T14:34:43;23.50;99.90
11820;DHT22;5967;48.944;9.240;2022-07-06T14:37:08;23.50;99.90
11820;DHT22;5967;48.944;9.240;2022-07-06T14:39:34;23.50;99.90
11820;DHT22;5967;48.944;9.240;2022-07-06T14:42:00;23.60;99.90
11820;DHT22;5967;48.944;9.240;2022-07-06T14:44:25;23.60;99.90
11820;DHT22;5967;48.944;9.240;2022-07-06T14:46:52;23.70;99.90
11820;DHT22;5967;48.944;9.240;2022-07-06T14:49:18;23.70;99.90
11820;DHT22;5967;48.944;9.240;2022-07-06T14:51:44;23.50;99.90
11820;DHT22;5967;48.944;9.240;2022-07-06T14:54:10;23.50;99.90
11820;DHT22;5967;48.944;9.240;2022-07-06T14:56:35;23.50;99.90
11820;DHT22;5967;48.944;9.240;2022-07-06T14:59:02;23.50;99.90
11820;DHT22;5967;48.944;9.240;2022-07-06T15:01:28;23.50;99.90
11820;DHT22;5967;48.944;9.240;2022-07-06T15:03:53;23.40;99.90
11820;DHT22;5967;48.944;9.240;2022-07-06T15:06:19;23.40;99.90
11820;DHT22;5967;48.944;9.240;2022-07-06T15:08:45;23.30;99.90
11820;DHT22;5967;48.944;9.240;2022-07-06T15:11:12;23.30;99.90
11820;DHT22;5967;48.944;9.240;2022-07-06T15:13:38;23.30;99.90
11820;DHT22;5967;48.944;9.240;2022-07-06T15:16:04;23.20;99.90
11820;DHT22;5967;48.944;9.240;2022-07-06T15:18:30;23.30;99.90
11820;DHT22;5967;48.944;9.240;2022-07-06T15:20:56;23.20;99.90
11820;DHT22;5967;48.944;9.240;2022-07-06T15:23:21;23.20;99.90
11820;DHT22;5967;48.944;9.240;2022-07-06T15:25:47;23.20;99.90
11820;DHT22;5967;48.944;9.240;2022-07-06T15:28:13;23.10;99.90
11820;DHT22;5967;48.944;9.240;2022-07-06T15:30:39;23.10;99.90
11820;DHT22;5967;48.944;9.240;2022-07-06T15:33:05;23.10;99.90
11820;DHT22;5967;48.944;9.240;2022-07-06T15:35:30;23.20;99.90
11820;DHT22;5967;48.944;9.240;2022-07-06T15:37:58;23.30;99.90
11820;DHT22;5967;48.944;9.240;2022-07-06T15:40:24;23.30;99.90
11820;DHT22;5967;48.944;9.240;2022-07-06T15:42:50;23.30;99.90
11820;DHT22;5967;48.944;9.240;2022-07-06T15:45:17;23.40;99.90
11820;DHT22;5967;48.944;9.240;2022-07-06T15:47:44;23.50;99.90
11820;DHT22;5967;48.944;9.240;2022-07-06T15:50:10;23.50;99.90
11820;DHT22;5967;48.944;9.240;2022-07-06T15:52:35;23.50;99.90
11820;DHT22;5967;48.944;9.240;2022-07-06T15:55:01;23.40;99.90
11820;DHT22;5967;48.944;9.240;2022-07-06T15:57:27;23.40;99.90
11820;DHT22;5967;48.944;9.240;2022-07-06T15:59:53;23.40;99.90
11820;DHT22;5967;48.944;9.240;2022-07-06T16:02:18;23.30;99.90
11820;DHT22;5967;48.944;9.240;2022-07-06T16:04:45;23.20;99.90